sensor_id;sensor_type;location;lat;lon;timestamp;P1;durP1;ratioP1;P2;durP2;ratioP2
44842;SDS011;31884;52.538;13.820;2023-12-07T00:00:32;24.77;;;12.65;;
44842;SDS011;31884;52.538;13.820;2023-12-07T00:02:57;26.77;;;14.95;;
44842;SDS011;31884;52.538;13.820;2023-12-07T00:05:24;27.73;;;12.77;;
44842;SDS011;31884;52.538;13.820;2023-12-07T00:07:50;25.92;;;13.40;;
44842;SDS011;31884;52.538;13.820;2023-12-07T00:10:15;22.80;;;12.35;;
44842;SDS011;31884;52.538;13.820;2023-12-07T00:12:41;29.17;;;13.30;;
44842;SDS011;31884;52.538;13.820;2023-12-07T00:15:07;25.23;;;13.85;;
44842;SDS011;31884;52.538;13.820;2023-12-07T00:17:32;25.20;;;11.52;;
44842;SDS011;31884;52.538;13.820;2023-12-07T00:19:58;24.65;;;13.23;;
44842;SDS011;31884;52.538;13.820;2023-12-07T00:22:23;25.55;;;13.27;;
44842;SDS011;31884;52.538;13.820;2023-12-07T00:24:50;21.73;;;11.65;;
44842;SDS011;31884;52.538;13.820;2023-12-07T00:27:16;26.08;;;13.30;;
44842;SDS011;31884;52.538;13.820;2023-12-07T00:29:41;23.90;;;11.80;;
44842;SDS011;31884;52.538;13.820;2023-12-07T00:32:07;22.50;;;11.20;;
44842;SDS011;31884;52.538;13.820;2023-12-07T00:34:32;26.13;;;12.45;;
44842;SDS011;31884;52.538;13.820;2023-12-07T00:36:58;25.20;;;12.70;;
44842;SDS011;31884;52.538;13.820;2023-12-07T00:39:23;24.30;;;12.40;;
44842;SDS011;31884;52.538;13.820;2023-12-07T00:41:49;26.98;;;13.05;;
44842;SDS011;31884;52.538;13.820;2023-12-07T00:44:14;22.33;;;12.23;;
44842;SDS011;31884;52.538;13.820;2023-12-07T00:46:40;27.83;;;14.90;;
44842;SDS011;31884;52.538;13.820;2023-12-07T00:49:05;23.33;;;11.75;;
44842;SDS011;31884;52.538;13.820;2023-12-07T00:51:31;22.30;;;11.18;;
44842;SDS011;31884;52.538;13.820;2023-12-07T00:53:56;21.85;;;11.40;;
44842;SDS011;31884;52.538;13.820;2023-12-07T00:56:23;24.45;;;12.60;;
44842;SDS011;31884;52.538;13.820;2023-12-07T00:58:49;24.17;;;12.27;;
44842;SDS011;31884;52.538;13.820;2023-12-07T01:01:15;23.27;;;11.88;;
44842;SDS011;31884;52.538;13.820;2023-12-07T01:03:41;24.73;;;13.00;;
44842;SDS011;31884;52.538;13.820;2023-12-07T01:06:06;24.40;;;13.05;;
44842;SDS011;31884;52.538;13.820;2023-12-07T01:08:32;22.20;;;11.10;;
44842;SDS011;31884;52.538;13.820;2023-12-07T01:10:58;23.08;;;12.68;;
44842;SDS011;31884;52.538;13.820;2023-12-07T01:13:24;27.05;;;14.23;;
44842;SDS011;31884;52.538;13.820;2023-12-07T01:15:49;24.10;;;12.68;;
44842;SDS011;31884;52.538;13.820;2023-12-07T01:18:15;27.60;;;15.57;;
44842;SDS011;31884;52.538;13.820;2023-12-07T01:20:41;25.08;;;13.48;;
44842;SDS011;31884;52.538;13.820;2023-12-07T01:23:06;24.90;;;13.40;;
44842;SDS011;31884;52.538;13.820;2023-12-07T01:25:33;23.92;;;13.70;;
44842;SDS011;31884;52.538;13.820;2023-12-07T01:27:59;24.80;;;13.77;;
44842;SDS011;31884;52.538;13.820;2023-12-07T01:30:25;23.73;;;12.40;;
44842;SDS011;31884;52.538;13.820;2023-12-07T01:32:50;23.10;;;13.07;;
44842;SDS011;31884;52.538;13.820;2023-12-07T01:35:16;18.10;;;10.82;;
44842;SDS011;31884;52.538;13.820;2023-12-07T01:37:41;21.17;;;11.45;;
44842;SDS011;31884;52.538;13.820;2023-12-07T01:40:07;22.13;;;11.93;;
44842;SDS011;31884;52.538;13.820;2023-12-07T01:42:35;22.90;;;11.55;;
44842;SDS011;31884;52.538;13.820;2023-12-07T01:45:02;23.38;;;12.52;;
44842;SDS011;31884;52.538;13.820;2023-12-07T01:47:28;25.92;;;13.27;;
44842;SDS011;31884;52.538;13.820;2023-12-07T01:49:54;24.33;;;12.48;;
44842;SDS011;31884;52.538;13.820;2023-12-07T01:52:20;23.50;;;11.80;;
44842;SDS011;31884;52.538;13.820;2023-12-07T01:54:47;24.80;;;12.80;;
44842;SDS011;31884;52.538;13.820;2023-12-07T01:57:13;21.02;;;10.90;;
44842;SDS011;31884;52.538;13.820;2023-12-07T01:59:39;21.73;;;11.27;;
44842;SDS011;31884;52.538;13.820;2023-12-07T02:02:04;24.52;;;11.55;;
44842;SDS011;31884;52.538;13.820;2023-12-07T02:04:30;22.25;;;11.27;;
44842;SDS011;31884;52.538;13.820;2023-12-07T02:06:57;22.27;;;12.57;;
44842;SDS011;31884;52.538;13.820;2023-12-07T02:09:24;20.98;;;11.27;;
44842;SDS011;31884;52.538;13.820;2023-12-07T02:11:50;23.67;;;12.02;;
44842;SDS011;31884;52.538;13.820;2023-12-07T02:14:15;24.30;;;12.98;;
44842;SDS011;31884;52.538;13.820;2023-12-07T02:16:43;20.75;;;10.65;;
44842;SDS011;31884;52.538;13.820;2023-12-07T02:21:38;23.80;;;12.15;;
44842;SDS011;31884;52.538;13.820;2023-12-07T02:24:09;21.33;;;11.57;;
44842;SDS011;31884;52.538;13.820;2023-12-07T02:26:41;22.92;;;12.05;;
44842;SDS011;31884;52.538;13.820;2023-12-07T02:29:06;26.50;;;12.73;;
44842;SDS011;31884;52.538;13.820;2023-12-07T02:31:32;26.08;;;12.38;;
44842;SDS011;31884;52.538;13.820;2023-12-07T02:33:58;25.35;;;12.27;;
44842;SDS011;31884;52.538;13.820;2023-12-07T02:36:24;20.73;;;11.05;;
44842;SDS011;31884;52.538;13.820;2023-12-07T02:38:56;24.02;;;10.95;;
44842;SDS011;31884;52.538;13.820;2023-12-07T02:41:23;23.67;;;12.43;;
44842;SDS011;31884;52.538;13.820;2023-12-07T02:43:51;21.50;;;12.18;;
44842;SDS011;31884;52.538;13.820;2023-12-07T02:46:16;19.52;;;10.90;;
44842;SDS011;31884;52.538;13.820;2023-12-07T02:48:42;25.80;;;13.68;;
44842;SDS011;31884;52.538;13.820;2023-12-07T02:51:08;22.80;;;13.25;;
44842;SDS011;31884;52.538;13.820;2023-12-07T02:53:33;24.92;;;12.73;;
44842;SDS011;31884;52.538;13.820;2023-12-07T02:55:59;21.27;;;11.80;;
44842;SDS011;31884;52.538;13.820;2023-12-07T02:58:24;18.70;;;10.68;;
44842;SDS011;31884;52.538;13.820;2023-12-07T03:00:50;23.13;;;12.45;;
44842;SDS011;31884;52.538;13.820;2023-12-07T03:03:15;22.95;;;12.05;;
44842;SDS011;31884;52.538;13.820;2023-12-07T03:05:41;24.73;;;11.85;;
44842;SDS011;31884;52.538;13.820;2023-12-07T03:08:06;20.23;;;11.38;;
44842;SDS011;31884;52.538;13.820;2023-12-07T03:10:32;23.52;;;11.52;;
44842;SDS011;31884;52.538;13.820;2023-12-07T03:12:57;18.48;;;10.80;;
44842;SDS011;31884;52.538;13.820;2023-12-07T03:15:23;24.92;;;12.27;;
44842;SDS011;31884;52.538;13.820;2023-12-07T03:17:49;22.55;;;11.10;;
44842;SDS011;31884;52.538;13.820;2023-12-07T03:20:15;19.85;;;9.88;;
44842;SDS011;31884;52.538;13.820;2023-12-07T03:22:40;15.48;;;9.43;;
44842;SDS011;31884;52.538;13.820;2023-12-07T03:25:06;18.90;;;9.73;;
44842;SDS011;31884;52.538;13.820;2023-12-07T03:27:32;18.92;;;9.27;;
44842;SDS011;31884;52.538;13.820;2023-12-07T03:30:00;21.63;;;11.85;;
44842;SDS011;31884;52.538;13.820;2023-12-07T03:32:26;22.27;;;11.85;;
44842;SDS011;31884;52.538;13.820;2023-12-07T03:34:51;19.20;;;10.85;;
44842;SDS011;31884;52.538;13.820;2023-12-07T03:37:16;22.50;;;12.45;;
44842;SDS011;31884;52.538;13.820;2023-12-07T03:39:42;20.08;;;10.45;;
44842;SDS011;31884;52.538;13.820;2023-12-07T03:42:07;24.27;;;11.23;;
44842;SDS011;31884;52.538;13.820;2023-12-07T03:44:33;20.63;;;11.68;;
44842;SDS011;31884;52.538;13.820;2023-12-07T03:46:59;24.60;;;12.52;;
44842;SDS011;31884;52.538;13.820;2023-12-07T03:49:24;23.08;;;12.70;;
44842;SDS011;31884;52.538;13.820;2023-12-07T03:51:50;24.27;;;13.32;;
44842;SDS011;31884;52.538;13.820;2023-12-07T03:54:15;24.02;;;13.65;;
44842;SDS011;31884;52.538;13.820;2023-12-07T03:56:41;20.00;;;11.90;;
44842;SDS011;31884;52.538;13.820;2023-12-07T03:59:06;23.20;;;12.00;;
44842;SDS011;31884;52.538;13.820;2023-12-07T04:01:32;22.73;;;12.88;;
44842;SDS011;31884;52.538;13.820;2023-12-07T04:04:00;21.58;;;11.38;;
44842;SDS011;31884;52.538;13.820;2023-12-07T04:06:26;24.55;;;12.70;;
44842;SDS011;31884;52.538;13.820;2023-12-07T04:08:51;24.98;;;11.98;;
44842;SDS011;31884;52.538;13.820;2023-12-07T04:11:20;20.10;;;10.55;;
44842;SDS011;31884;52.538;13.820;2023-12-07T04:13:49;20.08;;;9.95;;
44842;SDS011;31884;52.538;13.820;2023-12-07T04:16:15;22.00;;;11.80;;
44842;SDS011;31884;52.538;13.820;2023-12-07T04:18:40;23.67;;;12.65;;
44842;SDS011;31884;52.538;13.820;2023-12-07T04:21:06;21.30;;;11.93;;
44842;SDS011;31884;52.538;13.820;2023-12-07T04:23:31;23.50;;;13.27;;
44842;SDS011;31884;52.538;13.820;2023-12-07T04:26:00;22.35;;;12.18;;
44842;SDS011;31884;52.538;13.820;2023-12-07T04:28:25;23.25;;;12.63;;
44842;SDS011;31884;52.538;13.820;2023-12-07T04:30:51;24.75;;;13.23;;
44842;SDS011;31884;52.538;13.820;2023-12-07T04:33:17;20.00;;;11.57;;
44842;SDS011;31884;52.538;13.820;2023-12-07T04:35:43;27.17;;;13.52;;
44842;SDS011;31884;52.538;13.820;2023-12-07T04:38:08;26.05;;;13.50;;
44842;SDS011;31884;52.538;13.820;2023-12-07T04:40:37;24.50;;;13.18;;
44842;SDS011;31884;52.538;13.820;2023-12-07T04:43:06;21.13;;;11.65;;
44842;SDS011;31884;52.538;13.820;2023-12-07T04:45:31;26.55;;;13.02;;
44842;SDS011;31884;52.538;13.820;2023-12-07T04:48:00;20.90;;;11.70;;
44842;SDS011;31884;52.538;13.820;2023-12-07T04:50:28;21.80;;;12.88;;
44842;SDS011;31884;52.538;13.820;2023-12-07T04:52:54;22.85;;;12.05;;
44842;SDS011;31884;52.538;13.820;2023-12-07T04:55:19;23.15;;;12.05;;
44842;SDS011;31884;52.538;13.820;2023-12-07T04:57:45;20.45;;;11.20;;
44842;SDS011;31884;52.538;13.820;2023-12-07T05:00:10;20.48;;;11.45;;
44842;SDS011;31884;52.538;13.820;2023-12-07T05:02:42;19.88;;;10.32;;
44842;SDS011;31884;52.538;13.820;2023-12-07T05:05:08;22.40;;;11.70;;
44842;SDS011;31884;52.538;13.820;2023-12-07T05:07:37;25.98;;;12.82;;
44842;SDS011;31884;52.538;13.820;2023-12-07T05:10:02;21.05;;;11.40;;
44842;SDS011;31884;52.538;13.820;2023-12-07T05:12:28;18.83;;;10.80;;
44842;SDS011;31884;52.538;13.820;2023-12-07T05:14:53;23.48;;;12.68;;
44842;SDS011;31884;52.538;13.820;2023-12-07T05:17:19;20.77;;;11.43;;
44842;SDS011;31884;52.538;13.820;2023-12-07T05:19:44;22.65;;;12.05;;
44842;SDS011;31884;52.538;13.820;2023-12-07T05:22:16;23.45;;;12.15;;
44842;SDS011;31884;52.538;13.820;2023-12-07T05:24:42;23.95;;;12.98;;
44842;SDS011;31884;52.538;13.820;2023-12-07T05:27:07;26.80;;;13.65;;
44842;SDS011;31884;52.538;13.820;2023-12-07T05:29:36;24.02;;;12.63;;
44842;SDS011;31884;52.538;13.820;2023-12-07T05:32:02;23.98;;;13.57;;
44842;SDS011;31884;52.538;13.820;2023-12-07T05:34:28;28.65;;;13.68;;
44842;SDS011;31884;52.538;13.820;2023-12-07T05:36:54;23.17;;;12.88;;
44842;SDS011;31884;52.538;13.820;2023-12-07T05:39:20;21.40;;;11.18;;
44842;SDS011;31884;52.538;13.820;2023-12-07T05:41:45;27.65;;;15.05;;
44842;SDS011;31884;52.538;13.820;2023-12-07T05:44:14;23.35;;;13.52;;
44842;SDS011;31884;52.538;13.820;2023-12-07T05:46:49;24.40;;;14.05;;
44842;SDS011;31884;52.538;13.820;2023-12-07T05:49:15;28.92;;;14.98;;
44842;SDS011;31884;52.538;13.820;2023-12-07T05:51:40;26.02;;;14.82;;
44842;SDS011;31884;52.538;13.820;2023-12-07T05:54:06;23.92;;;14.00;;
44842;SDS011;31884;52.538;13.820;2023-12-07T05:56:31;23.05;;;13.23;;
44842;SDS011;31884;52.538;13.820;2023-12-07T05:59:00;24.50;;;13.35;;
44842;SDS011;31884;52.538;13.820;2023-12-07T06:01:29;29.70;;;15.15;;
44842;SDS011;31884;52.538;13.820;2023-12-07T06:03:55;28.90;;;15.75;;
44842;SDS011;31884;52.538;13.820;2023-12-07T06:06:20;27.83;;;15.45;;
44842;SDS011;31884;52.538;13.820;2023-12-07T06:08:47;28.08;;;12.88;;
44842;SDS011;31884;52.538;13.820;2023-12-07T06:11:12;26.17;;;13.45;;
44842;SDS011;31884;52.538;13.820;2023-12-07T06:13:38;23.60;;;13.15;;
44842;SDS011;31884;52.538;13.820;2023-12-07T06:16:03;28.60;;;15.27;;
44842;SDS011;31884;52.538;13.820;2023-12-07T06:18:33;24.33;;;13.30;;
44842;SDS011;31884;52.538;13.820;2023-12-07T06:20:58;20.60;;;11.63;;
44842;SDS011;31884;52.538;13.820;2023-12-07T06:23:28;23.15;;;12.18;;
44842;SDS011;31884;52.538;13.820;2023-12-07T06:25:53;22.23;;;12.02;;
44842;SDS011;31884;52.538;13.820;2023-12-07T06:28:19;27.90;;;14.63;;
44842;SDS011;31884;52.538;13.820;2023-12-07T06:30:44;29.00;;;13.88;;
44842;SDS011;31884;52.538;13.820;2023-12-07T06:33:13;27.42;;;13.95;;
44842;SDS011;31884;52.538;13.820;2023-12-07T06:35:39;25.48;;;12.95;;
44842;SDS011;31884;52.538;13.820;2023-12-07T06:38:04;21.13;;;11.57;;
44842;SDS011;31884;52.538;13.820;2023-12-07T06:40:30;29.40;;;14.45;;
44842;SDS011;31884;52.538;13.820;2023-12-07T06:42:56;31.08;;;15.80;;
44842;SDS011;31884;52.538;13.820;2023-12-07T06:45:22;27.98;;;14.63;;
44842;SDS011;31884;52.538;13.820;2023-12-07T06:47:47;27.42;;;13.77;;
44842;SDS011;31884;52.538;13.820;2023-12-07T06:50:13;23.42;;;11.32;;
44842;SDS011;31884;52.538;13.820;2023-12-07T06:52:39;22.73;;;12.23;;
44842;SDS011;31884;52.538;13.820;2023-12-07T06:55:05;24.85;;;12.20;;
44842;SDS011;31884;52.538;13.820;2023-12-07T06:57:31;25.45;;;13.07;;
44842;SDS011;31884;52.538;13.820;2023-12-07T06:59:57;32.42;;;15.32;;
44842;SDS011;31884;52.538;13.820;2023-12-07T07:02:22;28.02;;;13.95;;
44842;SDS011;31884;52.538;13.820;2023-12-07T07:04:48;29.95;;;15.15;;
44842;SDS011;31884;52.538;13.820;2023-12-07T07:07:14;20.67;;;11.40;;
44842;SDS011;31884;52.538;13.820;2023-12-07T07:09:40;29.08;;;13.43;;
44842;SDS011;31884;52.538;13.820;2023-12-07T07:12:05;25.58;;;13.70;;
44842;SDS011;31884;52.538;13.820;2023-12-07T07:14:31;30.23;;;14.82;;
44842;SDS011;31884;52.538;13.820;2023-12-07T07:16:57;29.83;;;14.45;;
44842;SDS011;31884;52.538;13.820;2023-12-07T07:19:22;32.25;;;15.13;;
44842;SDS011;31884;52.538;13.820;2023-12-07T07:21:47;31.50;;;14.98;;
44842;SDS011;31884;52.538;13.820;2023-12-07T07:24:14;26.40;;;13.55;;
44842;SDS011;31884;52.538;13.820;2023-12-07T07:26:39;26.85;;;13.75;;
44842;SDS011;31884;52.538;13.820;2023-12-07T07:29:05;29.80;;;15.32;;
44842;SDS011;31884;52.538;13.820;2023-12-07T07:31:31;30.52;;;14.75;;
44842;SDS011;31884;52.538;13.820;2023-12-07T07:33:57;31.20;;;14.05;;
44842;SDS011;31884;52.538;13.820;2023-12-07T07:36:22;28.25;;;13.07;;
44842;SDS011;31884;52.538;13.820;2023-12-07T07:38:47;27.73;;;14.25;;
44842;SDS011;31884;52.538;13.820;2023-12-07T07:41:13;35.30;;;16.23;;
44842;SDS011;31884;52.538;13.820;2023-12-07T07:43:39;32.33;;;15.05;;
44842;SDS011;31884;52.538;13.820;2023-12-07T07:46:04;29.38;;;15.13;;
44842;SDS011;31884;52.538;13.820;2023-12-07T07:48:30;28.98;;;14.63;;
44842;SDS011;31884;52.538;13.820;2023-12-07T07:50:56;29.85;;;14.93;;
44842;SDS011;31884;52.538;13.820;2023-12-07T07:53:22;31.63;;;16.00;;
44842;SDS011;31884;52.538;13.820;2023-12-07T07:55:48;37.65;;;18.02;;
44842;SDS011;31884;52.538;13.820;2023-12-07T07:58:13;29.92;;;15.15;;
44842;SDS011;31884;52.538;13.820;2023-12-07T08:00:39;32.13;;;16.17;;
44842;SDS011;31884;52.538;13.820;2023-12-07T08:03:04;33.30;;;15.65;;
44842;SDS011;31884;52.538;13.820;2023-12-07T08:05:31;32.88;;;16.83;;
44842;SDS011;31884;52.538;13.820;2023-12-07T08:07:56;31.17;;;18.35;;
44842;SDS011;31884;52.538;13.820;2023-12-07T08:10:22;37.92;;;17.45;;
44842;SDS011;31884;52.538;13.820;2023-12-07T08:12:47;31.05;;;14.95;;
44842;SDS011;31884;52.538;13.820;2023-12-07T08:15:13;36.72;;;16.38;;
44842;SDS011;31884;52.538;13.820;2023-12-07T08:17:41;32.10;;;15.13;;
44842;SDS011;31884;52.538;13.820;2023-12-07T08:20:10;35.80;;;17.02;;
44842;SDS011;31884;52.538;13.820;2023-12-07T08:22:37;43.10;;;19.48;;
44842;SDS011;31884;52.538;13.820;2023-12-07T08:25:04;38.17;;;17.38;;
44842;SDS011;31884;52.538;13.820;2023-12-07T08:27:31;30.55;;;15.82;;
44842;SDS011;31884;52.538;13.820;2023-12-07T08:29:57;40.20;;;19.15;;
44842;SDS011;31884;52.538;13.820;2023-12-07T08:32:23;32.10;;;16.85;;
44842;SDS011;31884;52.538;13.820;2023-12-07T08:34:50;43.65;;;19.75;;
44842;SDS011;31884;52.538;13.820;2023-12-07T08:37:16;40.33;;;19.23;;
44842;SDS011;31884;52.538;13.820;2023-12-07T08:39:41;34.67;;;17.95;;
44842;SDS011;31884;52.538;13.820;2023-12-07T08:42:07;49.42;;;21.17;;
44842;SDS011;31884;52.538;13.820;2023-12-07T08:44:33;40.22;;;18.92;;
44842;SDS011;31884;52.538;13.820;2023-12-07T08:46:59;36.67;;;17.83;;
44842;SDS011;31884;52.538;13.820;2023-12-07T08:49:24;44.65;;;20.25;;
44842;SDS011;31884;52.538;13.820;2023-12-07T08:51:51;41.53;;;20.70;;
44842;SDS011;31884;52.538;13.820;2023-12-07T08:54:17;46.38;;;19.20;;
44842;SDS011;31884;52.538;13.820;2023-12-07T08:56:44;39.35;;;18.67;;
44842;SDS011;31884;52.538;13.820;2023-12-07T08:59:10;32.65;;;16.23;;
44842;SDS011;31884;52.538;13.820;2023-12-07T09:01:35;40.28;;;17.98;;
44842;SDS011;31884;52.538;13.820;2023-12-07T09:04:01;31.13;;;15.50;;
44842;SDS011;31884;52.538;13.820;2023-12-07T09:06:27;29.35;;;14.93;;
44842;SDS011;31884;52.538;13.820;2023-12-07T09:08:52;35.13;;;18.23;;
44842;SDS011;31884;52.538;13.820;2023-12-07T09:11:18;33.80;;;16.35;;
44842;SDS011;31884;52.538;13.820;2023-12-07T09:13:43;36.05;;;17.13;;
44842;SDS011;31884;52.538;13.820;2023-12-07T09:16:09;30.30;;;15.63;;
44842;SDS011;31884;52.538;13.820;2023-12-07T09:18:34;36.75;;;17.08;;
44842;SDS011;31884;52.538;13.820;2023-12-07T09:21:03;40.47;;;17.90;;
44842;SDS011;31884;52.538;13.820;2023-12-07T09:23:29;30.48;;;14.68;;
44842;SDS011;31884;52.538;13.820;2023-12-07T09:25:54;33.90;;;16.58;;
44842;SDS011;31884;52.538;13.820;2023-12-07T09:28:20;37.50;;;18.77;;
44842;SDS011;31884;52.538;13.820;2023-12-07T09:30:45;37.60;;;17.77;;
44842;SDS011;31884;52.538;13.820;2023-12-07T09:33:11;39.55;;;16.83;;
44842;SDS011;31884;52.538;13.820;2023-12-07T09:35:36;40.05;;;19.02;;
44842;SDS011;31884;52.538;13.820;2023-12-07T09:38:03;33.90;;;16.95;;
44842;SDS011;31884;52.538;13.820;2023-12-07T09:40:29;40.10;;;18.70;;
44842;SDS011;31884;52.538;13.820;2023-12-07T09:42:55;30.10;;;16.50;;
44842;SDS011;31884;52.538;13.820;2023-12-07T09:45:21;37.65;;;17.83;;
44842;SDS011;31884;52.538;13.820;2023-12-07T09:47:47;37.80;;;17.58;;
44842;SDS011;31884;52.538;13.820;2023-12-07T09:50:15;82.78;;;35.33;;
44842;SDS011;31884;52.538;13.820;2023-12-07T09:52:48;50.92;;;25.13;;
44842;SDS011;31884;52.538;13.820;2023-12-07T09:55:16;47.63;;;22.42;;
44842;SDS011;31884;52.538;13.820;2023-12-07T09:57:42;45.80;;;20.75;;
44842;SDS011;31884;52.538;13.820;2023-12-07T10:00:08;41.90;;;18.65;;
44842;SDS011;31884;52.538;13.820;2023-12-07T10:02:39;44.55;;;19.20;;
44842;SDS011;31884;52.538;13.820;2023-12-07T10:05:06;37.95;;;18.33;;
44842;SDS011;31884;52.538;13.820;2023-12-07T10:07:34;39.47;;;19.10;;
44842;SDS011;31884;52.538;13.820;2023-12-07T10:10:01;38.13;;;16.85;;
44842;SDS011;31884;52.538;13.820;2023-12-07T10:12:28;38.20;;;17.60;;
44842;SDS011;31884;52.538;13.820;2023-12-07T10:14:54;33.80;;;17.40;;
44842;SDS011;31884;52.538;13.820;2023-12-07T10:17:19;32.40;;;15.68;;
44842;SDS011;31884;52.538;13.820;2023-12-07T10:19:45;34.08;;;16.45;;
44842;SDS011;31884;52.538;13.820;2023-12-07T10:22:14;36.60;;;17.80;;
44842;SDS011;31884;52.538;13.820;2023-12-07T10:24:40;46.33;;;20.05;;
44842;SDS011;31884;52.538;13.820;2023-12-07T10:27:06;44.63;;;19.95;;
44842;SDS011;31884;52.538;13.820;2023-12-07T10:29:36;38.33;;;17.52;;
44842;SDS011;31884;52.538;13.820;2023-12-07T10:32:03;45.25;;;19.60;;
44842;SDS011;31884;52.538;13.820;2023-12-07T10:34:29;40.17;;;17.55;;
44842;SDS011;31884;52.538;13.820;2023-12-07T10:37:00;41.42;;;17.88;;
44842;SDS011;31884;52.538;13.820;2023-12-07T10:39:26;39.17;;;19.52;;
44842;SDS011;31884;52.538;13.820;2023-12-07T10:41:52;42.05;;;18.60;;
44842;SDS011;31884;52.538;13.820;2023-12-07T10:44:21;46.20;;;20.15;;
44842;SDS011;31884;52.538;13.820;2023-12-07T10:46:51;40.28;;;18.40;;
44842;SDS011;31884;52.538;13.820;2023-12-07T10:49:17;39.10;;;16.67;;
44842;SDS011;31884;52.538;13.820;2023-12-07T10:54:26;39.95;;;18.42;;
44842;SDS011;31884;52.538;13.820;2023-12-07T10:57:00;41.40;;;18.48;;
44842;SDS011;31884;52.538;13.820;2023-12-07T10:59:30;40.75;;;17.40;;
44842;SDS011;31884;52.538;13.820;2023-12-07T11:02:00;44.63;;;19.98;;
44842;SDS011;31884;52.538;13.820;2023-12-07T11:04:26;44.95;;;20.00;;
44842;SDS011;31884;52.538;13.820;2023-12-07T11:06:52;35.17;;;17.75;;
44842;SDS011;31884;52.538;13.820;2023-12-07T11:09:23;39.15;;;18.27;;
44842;SDS011;31884;52.538;13.820;2023-12-07T11:12:13;46.63;;;19.75;;
44842;SDS011;31884;52.538;13.820;2023-12-07T11:14:48;36.65;;;16.85;;
44842;SDS011;31884;52.538;13.820;2023-12-07T11:17:14;43.70;;;17.77;;
44842;SDS011;31884;52.538;13.820;2023-12-07T11:22:07;39.03;;;17.15;;
44842;SDS011;31884;52.538;13.820;2023-12-07T11:24:36;40.05;;;17.05;;
44842;SDS011;31884;52.538;13.820;2023-12-07T11:27:02;35.65;;;16.30;;
44842;SDS011;31884;52.538;13.820;2023-12-07T11:29:28;38.70;;;17.75;;
44842;SDS011;31884;52.538;13.820;2023-12-07T11:32:01;34.70;;;15.60;;
44842;SDS011;31884;52.538;13.820;2023-12-07T11:37:01;33.50;;;15.55;;
44842;SDS011;31884;52.538;13.820;2023-12-07T11:39:27;38.80;;;18.27;;
44842;SDS011;31884;52.538;13.820;2023-12-07T11:41:54;33.97;;;16.75;;
44842;SDS011;31884;52.538;13.820;2023-12-07T11:44:36;35.70;;;16.23;;
44842;SDS011;31884;52.538;13.820;2023-12-07T11:47:06;36.38;;;17.05;;
44842;SDS011;31884;52.538;13.820;2023-12-07T11:49:32;37.17;;;17.58;;
44842;SDS011;31884;52.538;13.820;2023-12-07T11:52:00;34.97;;;17.02;;
44842;SDS011;31884;52.538;13.820;2023-12-07T11:54:36;35.58;;;17.42;;
44842;SDS011;31884;52.538;13.820;2023-12-07T11:57:07;33.30;;;16.67;;
44842;SDS011;31884;52.538;13.820;2023-12-07T11:59:32;33.15;;;15.50;;
44842;SDS011;31884;52.538;13.820;2023-12-07T12:01:59;34.03;;;15.82;;
44842;SDS011;31884;52.538;13.820;2023-12-07T12:04:27;42.53;;;17.58;;
44842;SDS011;31884;52.538;13.820;2023-12-07T12:06:53;36.85;;;16.77;;
44842;SDS011;31884;52.538;13.820;2023-12-07T12:09:19;33.25;;;15.90;;
44842;SDS011;31884;52.538;13.820;2023-12-07T12:11:45;38.20;;;17.58;;
44842;SDS011;31884;52.538;13.820;2023-12-07T12:14:17;33.80;;;14.82;;
44842;SDS011;31884;52.538;13.820;2023-12-07T12:16:45;36.17;;;16.15;;
44842;SDS011;31884;52.538;13.820;2023-12-07T12:19:14;34.42;;;16.10;;
44842;SDS011;31884;52.538;13.820;2023-12-07T12:21:40;33.38;;;15.43;;
44842;SDS011;31884;52.538;13.820;2023-12-07T12:24:06;32.55;;;15.57;;
44842;SDS011;31884;52.538;13.820;2023-12-07T12:26:34;34.22;;;16.00;;
44842;SDS011;31884;52.538;13.820;2023-12-07T12:29:02;31.55;;;15.57;;
44842;SDS011;31884;52.538;13.820;2023-12-07T12:31:28;36.40;;;15.35;;
44842;SDS011;31884;52.538;13.820;2023-12-07T12:33:54;30.35;;;15.23;;
44842;SDS011;31884;52.538;13.820;2023-12-07T12:36:20;32.83;;;15.45;;
44842;SDS011;31884;52.538;13.820;2023-12-07T12:38:48;35.67;;;16.25;;
44842;SDS011;31884;52.538;13.820;2023-12-07T12:41:19;81.30;;;37.30;;
44842;SDS011;31884;52.538;13.820;2023-12-07T12:43:45;48.67;;;24.20;;
44842;SDS011;31884;52.538;13.820;2023-12-07T12:46:11;48.83;;;23.25;;
44842;SDS011;31884;52.538;13.820;2023-12-07T12:48:51;40.10;;;20.08;;
44842;SDS011;31884;52.538;13.820;2023-12-07T12:51:18;41.38;;;19.70;;
44842;SDS011;31884;52.538;13.820;2023-12-07T12:53:44;50.28;;;24.65;;
44842;SDS011;31884;52.538;13.820;2023-12-07T12:56:11;49.10;;;23.15;;
44842;SDS011;31884;52.538;13.820;2023-12-07T12:58:40;44.38;;;23.05;;
44842;SDS011;31884;52.538;13.820;2023-12-07T13:01:06;40.95;;;20.45;;
44842;SDS011;31884;52.538;13.820;2023-12-07T13:03:31;37.78;;;18.50;;
44842;SDS011;31884;52.538;13.820;2023-12-07T13:05:57;41.30;;;18.77;;
44842;SDS011;31884;52.538;13.820;2023-12-07T13:08:27;36.05;;;17.10;;
44842;SDS011;31884;52.538;13.820;2023-12-07T13:10:58;35.85;;;16.60;;
44842;SDS011;31884;52.538;13.820;2023-12-07T13:13:23;33.90;;;15.60;;
44842;SDS011;31884;52.538;13.820;2023-12-07T13:15:53;46.47;;;22.08;;
44842;SDS011;31884;52.538;13.820;2023-12-07T13:18:20;70.47;;;36.45;;
44842;SDS011;31884;52.538;13.820;2023-12-07T13:20:45;68.47;;;31.48;;
44842;SDS011;31884;52.538;13.820;2023-12-07T13:23:11;48.38;;;24.40;;
44842;SDS011;31884;52.538;13.820;2023-12-07T13:25:36;40.80;;;21.02;;
44842;SDS011;31884;52.538;13.820;2023-12-07T13:28:02;39.72;;;18.73;;
44842;SDS011;31884;52.538;13.820;2023-12-07T13:30:27;42.33;;;20.23;;
44842;SDS011;31884;52.538;13.820;2023-12-07T13:32:54;36.92;;;19.23;;
44842;SDS011;31884;52.538;13.820;2023-12-07T13:35:20;43.95;;;19.90;;
44842;SDS011;31884;52.538;13.820;2023-12-07T13:37:47;40.53;;;18.90;;
44842;SDS011;31884;52.538;13.820;2023-12-07T13:40:12;40.72;;;19.40;;
44842;SDS011;31884;52.538;13.820;2023-12-07T13:42:43;42.40;;;18.98;;
44842;SDS011;31884;52.538;13.820;2023-12-07T13:45:08;37.38;;;17.90;;
44842;SDS011;31884;52.538;13.820;2023-12-07T13:47:34;42.25;;;19.27;;
44842;SDS011;31884;52.538;13.820;2023-12-07T13:50:02;39.30;;;17.38;;
44842;SDS011;31884;52.538;13.820;2023-12-07T13:52:32;37.72;;;17.33;;
44842;SDS011;31884;52.538;13.820;2023-12-07T13:54:57;37.60;;;16.73;;
44842;SDS011;31884;52.538;13.820;2023-12-07T13:57:23;41.50;;;19.15;;
44842;SDS011;31884;52.538;13.820;2023-12-07T13:59:52;44.67;;;19.05;;
44842;SDS011;31884;52.538;13.820;2023-12-07T14:02:19;40.75;;;18.85;;
44842;SDS011;31884;52.538;13.820;2023-12-07T14:04:49;40.97;;;19.15;;
44842;SDS011;31884;52.538;13.820;2023-12-07T14:07:20;42.28;;;17.10;;
44842;SDS011;31884;52.538;13.820;2023-12-07T14:09:48;38.35;;;16.70;;
44842;SDS011;31884;52.538;13.820;2023-12-07T14:12:15;43.05;;;19.00;;
44842;SDS011;31884;52.538;13.820;2023-12-07T14:14:42;37.05;;;16.88;;